sensor_id;sensor_type;location;lat;lon;timestamp;temperature;humidity
25192;DHT22;13143;50.924;5.320;2023-04-25T00:00:00;11.20;99.90
25192;DHT22;13143;50.924;5.320;2023-04-25T00:02:26;11.20;99.90
25192;DHT22;13143;50.924;5.320;2023-04-25T00:04:53;11.10;99.90
25192;DHT22;13143;50.924;5.320;2023-04-25T00:07:25;11.20;99.90
25192;DHT22;13143;50.924;5.320;2023-04-25T00:09:51;11.10;99.90
25192;DHT22;13143;50.924;5.320;2023-04-25T00:12:17;11.10;99.90
25192;DHT22;13143;50.924;5.320;2023-04-25T00:14:43;11.10;99.90
25192;DHT22;13143;50.924;5.320;2023-04-25T00:17:11;11.10;99.90
25192;DHT22;13143;50.924;5.320;2023-04-25T00:19:37;11.10;99.90
25192;DHT22;13143;50.924;5.320;2023-04-25T00:22:03;11.10;99.90
25192;DHT22;13143;50.924;5.320;2023-04-25T00:24:31;11.10;99.90
25192;DHT22;13143;50.924;5.320;2023-04-25T00:26:57;11.10;99.90
25192;DHT22;13143;50.924;5.320;2023-04-25T00:29:23;11.10;99.90
25192;DHT22;13143;50.924;5.320;2023-04-25T00:31:49;11.10;99.90
25192;DHT22;13143;50.924;5.320;2023-04-25T00:34:15;11.00;99.90
25192;DHT22;13143;50.924;5.320;2023-04-25T00:36:41;11.10;99.90
25192;DHT22;13143;50.924;5.320;2023-04-25T00:39:07;11.00;99.90
25192;DHT22;13143;50.924;5.320;2023-04-25T00:41:34;11.00;99.90
25192;DHT22;13143;50.924;5.320;2023-04-25T00:44:00;11.00;99.90
25192;DHT22;13143;50.924;5.320;2023-04-25T00:46:27;11.00;99.90
25192;DHT22;13143;50.924;5.320;2023-04-25T00:48:54;11.00;99.90
25192;DHT22;13143;50.924;5.320;2023-04-25T00:51:21;11.00;99.90
25192;DHT22;13143;50.924;5.320;2023-04-25T00:53:49;11.00;99.90
25192;DHT22;13143;50.924;5.320;2023-04-25T00:56:16;11.00;99.90
25192;DHT22;13143;50.924;5.320;2023-04-25T00:58:42;10.90;99.90
25192;DHT22;13143;50.924;5.320;2023-04-25T01:01:11;10.90;99.90
25192;DHT22;13143;50.924;5.320;2023-04-25T01:03:39;10.90;99.90
25192;DHT22;13143;50.924;5.320;2023-04-25T01:06:10;10.90;99.90
25192;DHT22;13143;50.924;5.320;2023-04-25T01:08:38;10.90;99.90
25192;DHT22;13143;50.924;5.320;2023-04-25T01:11:04;10.90;99.90
25192;DHT22;13143;50.924;5.320;2023-04-25T01:13:30;10.90;99.90
25192;DHT22;13143;50.924;5.320;2023-04-25T01:15:58;10.90;99.90
25192;DHT22;13143;50.924;5.320;2023-04-25T01:18:25;10.90;99.90
25192;DHT22;13143;50.924;5.320;2023-04-25T01:20:52;10.90;99.90
25192;DHT22;13143;50.924;5.320;2023-04-25T01:23:21;10.90;99.90
25192;DHT22;13143;50.924;5.320;2023-04-25T01:25:48;10.90;99.90
25192;DHT22;13143;50.924;5.320;2023-04-25T01:28:15;10.90;99.90
25192;DHT22;13143;50.924;5.320;2023-04-25T01:30:42;10.80;99.90
25192;DHT22;13143;50.924;5.320;2023-04-25T01:33:09;10.80;99.90
25192;DHT22;13143;50.924;5.320;2023-04-25T01:35:35;10.80;99.90
25192;DHT22;13143;50.924;5.320;2023-04-25T01:38:01;10.80;99.90
25192;DHT22;13143;50.924;5.320;2023-04-25T01:40:27;10.80;99.90
25192;DHT22;13143;50.924;5.320;2023-04-25T01:42:54;10.80;99.90
25192;DHT22;13143;50.924;5.320;2023-04-25T01:45:20;10.80;99.90
25192;DHT22;13143;50.924;5.320;2023-04-25T01:47:46;10.80;99.90
25192;DHT22;13143;50.924;5.320;2023-04-25T01:50:17;10.80;99.90
25192;DHT22;13143;50.924;5.320;2023-04-25T01:52:43;10.70;99.90
25192;DHT22;13143;50.924;5.320;2023-04-25T01:55:09;10.80;99.90
25192;DHT22;13143;50.924;5.320;2023-04-25T01:57:36;10.70;99.90
25192;DHT22;13143;50.924;5.320;2023-04-25T02:00:04;10.70;99.90
25192;DHT22;13143;50.924;5.320;2023-04-25T02:02:31;10.70;99.90
25192;DHT22;13143;50.924;5.320;2023-04-25T02:04:57;10.70;99.90
25192;DHT22;13143;50.924;5.320;2023-04-25T02:07:23;10.70;99.90
25192;DHT22;13143;50.924;5.320;2023-04-25T02:09:49;10.70;99.90
25192;DHT22;13143;50.924;5.320;2023-04-25T02:12:15;10.70;99.90
25192;DHT22;13143;50.924;5.320;2023-04-25T02:14:41;10.70;99.90
25192;DHT22;13143;50.924;5.320;2023-04-25T02:17:07;10.70;99.90
25192;DHT22;13143;50.924;5.320;2023-04-25T02:19:33;10.70;99.90
25192;DHT22;13143;50.924;5.320;2023-04-25T02:22:00;10.70;99.90
25192;DHT22;13143;50.924;5.320;2023-04-25T02:24:26;10.70;99.90
25192;DHT22;13143;50.924;5.320;2023-04-25T02:26:53;10.70;99.90
25192;DHT22;13143;50.924;5.320;2023-04-25T02:29:21;10.70;99.90
25192;DHT22;13143;50.924;5.320;2023-04-25T02:31:47;10.70;99.90
25192;DHT22;13143;50.924;5.320;2023-04-25T02:34:13;10.60;99.90
25192;DHT22;13143;50.924;5.320;2023-04-25T02:36:39;10.60;99.90
25192;DHT22;13143;50.924;5.320;2023-04-25T02:39:05;10.60;99.90
25192;DHT22;13143;50.924;5.320;2023-04-25T02:41:32;10.60;99.90
25192;DHT22;13143;50.924;5.320;2023-04-25T02:43:58;10.60;99.90
25192;DHT22;13143;50.924;5.320;2023-04-25T02:46:24;10.60;99.90
25192;DHT22;13143;50.924;5.320;2023-04-25T02:48:50;10.60;99.90
25192;DHT22;13143;50.924;5.320;2023-04-25T02:51:16;10.60;99.90
25192;DHT22;13143;50.924;5.320;2023-04-25T02:53:42;10.60;99.90
25192;DHT22;13143;50.924;5.320;2023-04-25T02:56:08;10.60;99.90
25192;DHT22;13143;50.924;5.320;2023-04-25T02:58:34;10.60;99.90
25192;DHT22;13143;50.924;5.320;2023-04-25T03:01:00;10.60;99.90
25192;DHT22;13143;50.924;5.320;2023-04-25T03:03:26;10.50;99.90
25192;DHT22;13143;50.924;5.320;2023-04-25T03:05:52;10.60;99.90
25192;DHT22;13143;50.924;5.320;2023-04-25T03:08:19;10.50;99.90
25192;DHT22;13143;50.924;5.320;2023-04-25T03:10:45;10.60;99.90
25192;DHT22;13143;50.924;5.320;2023-04-25T03:13:11;10.50;99.90
25192;DHT22;13143;50.924;5.320;2023-04-25T03:15:38;10.50;99.90
25192;DHT22;13143;50.924;5.320;2023-04-25T03:18:04;10.50;99.90
25192;DHT22;13143;50.924;5.320;2023-04-25T03:20:30;10.50;99.90
25192;DHT22;13143;50.924;5.320;2023-04-25T03:22:56;10.50;99.90
25192;DHT22;13143;50.924;5.320;2023-04-25T03:25:22;10.50;99.90
25192;DHT22;13143;50.924;5.320;2023-04-25T03:27:49;10.50;99.90
25192;DHT22;13143;50.924;5.320;2023-04-25T03:30:15;10.50;99.90
25192;DHT22;13143;50.924;5.320;2023-04-25T03:32:41;10.50;99.90
25192;DHT22;13143;50.924;5.320;2023-04-25T03:35:07;10.40;99.90
25192;DHT22;13143;50.924;5.320;2023-04-25T03:37:33;10.40;99.90
25192;DHT22;13143;50.924;5.320;2023-04-25T03:40:00;10.40;99.90
25192;DHT22;13143;50.924;5.320;2023-04-25T03:42:26;10.40;99.90
25192;DHT22;13143;50.924;5.320;2023-04-25T03:44:52;10.40;99.90
25192;DHT22;13143;50.924;5.320;2023-04-25T03:47:18;10.40;99.90
25192;DHT22;13143;50.924;5.320;2023-04-25T03:49:44;10.40;99.90
25192;DHT22;13143;50.924;5.320;2023-04-25T03:52:10;10.40;99.90
25192;DHT22;13143;50.924;5.320;2023-04-25T03:54:36;10.40;99.90
25192;DHT22;13143;50.924;5.320;2023-04-25T03:57:02;10.30;99.90
25192;DHT22;13143;50.924;5.320;2023-04-25T03:59:28;10.30;99.90
25192;DHT22;13143;50.924;5.320;2023-04-25T04:01:54;10.30;99.90
25192;DHT22;13143;50.924;5.320;2023-04-25T04:04:20;10.30;99.90
25192;DHT22;13143;50.924;5.320;2023-04-25T04:06:47;10.20;99.90
25192;DHT22;13143;50.924;5.320;2023-04-25T04:09:13;10.20;99.90
25192;DHT22;13143;50.924;5.320;2023-04-25T04:11:39;10.20;99.90
25192;DHT22;13143;50.924;5.320;2023-04-25T04:14:06;10.20;99.90
25192;DHT22;13143;50.924;5.320;2023-04-25T04:16:33;10.20;99.90
25192;DHT22;13143;50.924;5.320;2023-04-25T04:18:59;10.20;99.90
25192;DHT22;13143;50.924;5.320;2023-04-25T04:21:25;10.10;99.90
25192;DHT22;13143;50.924;5.320;2023-04-25T04:23:53;10.10;99.90
25192;DHT22;13143;50.924;5.320;2023-04-25T04:26:21;10.10;99.90
25192;DHT22;13143;50.924;5.320;2023-04-25T04:28:50;10.10;99.90
25192;DHT22;13143;50.924;5.320;2023-04-25T04:31:17;10.00;99.90
25192;DHT22;13143;50.924;5.320;2023-04-25T04:33:45;10.00;99.90
25192;DHT22;13143;50.924;5.320;2023-04-25T04:36:11;10.00;99.90
25192;DHT22;13143;50.924;5.320;2023-04-25T04:38:37;9.90;99.90
25192;DHT22;13143;50.924;5.320;2023-04-25T04:41:03;9.90;99.90
25192;DHT22;13143;50.924;5.320;2023-04-25T04:43:29;9.90;99.90
25192;DHT22;13143;50.924;5.320;2023-04-25T04:45:56;9.90;99.90
25192;DHT22;13143;50.924;5.320;2023-04-25T04:48:22;9.80;99.90
25192;DHT22;13143;50.924;5.320;2023-04-25T04:50:48;9.80;99.90
25192;DHT22;13143;50.924;5.320;2023-04-25T04:53:14;9.80;99.90
25192;DHT22;13143;50.924;5.320;2023-04-25T04:55:40;9.80;99.90
25192;DHT22;13143;50.924;5.320;2023-04-25T04:58:09;9.80;99.90
25192;DHT22;13143;50.924;5.320;2023-04-25T05:00:35;9.80;99.90
25192;DHT22;13143;50.924;5.320;2023-04-25T05:03:01;9.70;99.90
25192;DHT22;13143;50.924;5.320;2023-04-25T05:05:27;9.80;99.90
25192;DHT22;13143;50.924;5.320;2023-04-25T05:07:53;9.70;99.90
25192;DHT22;13143;50.924;5.320;2023-04-25T05:10:20;9.70;99.90
25192;DHT22;13143;50.924;5.320;2023-04-25T05:12:46;9.70;99.90
25192;DHT22;13143;50.924;5.320;2023-04-25T05:15:12;9.70;99.90
25192;DHT22;13143;50.924;5.320;2023-04-25T05:17:38;9.70;99.90
25192;DHT22;13143;50.924;5.320;2023-04-25T05:20:06;9.70;99.90
25192;DHT22;13143;50.924;5.320;2023-04-25T05:22:33;9.70;99.90
25192;DHT22;13143;50.924;5.320;2023-04-25T05:24:59;9.70;99.90
25192;DHT22;13143;50.924;5.320;2023-04-25T05:27:25;9.70;99.90
25192;DHT22;13143;50.924;5.320;2023-04-25T05:29:51;9.70;99.90
25192;DHT22;13143;50.924;5.320;2023-04-25T05:32:18;9.60;99.90
25192;DHT22;13143;50.924;5.320;2023-04-25T05:34:44;9.60;99.90
25192;DHT22;13143;50.924;5.320;2023-04-25T05:37:10;9.60;99.90
25192;DHT22;13143;50.924;5.320;2023-04-25T05:39:36;9.60;99.90
25192;DHT22;13143;50.924;5.320;2023-04-25T05:42:02;9.60;99.90
25192;DHT22;13143;50.924;5.320;2023-04-25T05:44:30;9.70;99.90
25192;DHT22;13143;50.924;5.320;2023-04-25T05:46:56;9.60;99.90
25192;DHT22;13143;50.924;5.320;2023-04-25T05:49:22;9.70;99.90
25192;DHT22;13143;50.924;5.320;2023-04-25T05:51:48;9.60;99.90
25192;DHT22;13143;50.924;5.320;2023-04-25T05:54:14;9.70;99.90
25192;DHT22;13143;50.924;5.320;2023-04-25T05:56:40;9.70;99.90
25192;DHT22;13143;50.924;5.320;2023-04-25T05:59:06;9.70;99.90
25192;DHT22;13143;50.924;5.320;2023-04-25T06:01:33;9.70;99.90
25192;DHT22;13143;50.924;5.320;2023-04-25T06:03:59;9.70;99.90
25192;DHT22;13143;50.924;5.320;2023-04-25T06:06:25;9.70;99.90
25192;DHT22;13143;50.924;5.320;2023-04-25T06:08:52;9.70;99.90
25192;DHT22;13143;50.924;5.320;2023-04-25T06:11:18;9.70;99.90
25192;DHT22;13143;50.924;5.320;2023-04-25T06:13:45;9.70;99.90
25192;DHT22;13143;50.924;5.320;2023-04-25T06:16:11;9.70;99.90
25192;DHT22;13143;50.924;5.320;2023-04-25T06:18:37;9.70;99.90
25192;DHT22;13143;50.924;5.320;2023-04-25T06:21:04;9.70;99.90
25192;DHT22;13143;50.924;5.320;2023-04-25T06:23:30;9.70;99.90
25192;DHT22;13143;50.924;5.320;2023-04-25T06:25:56;9.70;99.90
25192;DHT22;13143;50.924;5.320;2023-04-25T06:28:22;9.70;99.90
25192;DHT22;13143;50.924;5.320;2023-04-25T06:30:49;9.70;99.90
25192;DHT22;13143;50.924;5.320;2023-04-25T06:33:15;9.70;99.90
25192;DHT22;13143;50.924;5.320;2023-04-25T06:35:41;9.70;99.90
25192;DHT22;13143;50.924;5.320;2023-04-25T06:38:07;9.70;99.90
25192;DHT22;13143;50.924;5.320;2023-04-25T06:40:33;9.70;99.90
25192;DHT22;13143;50.924;5.320;2023-04-25T06:42:59;9.80;99.90
25192;DHT22;13143;50.924;5.320;2023-04-25T06:45:25;9.80;99.90
25192;DHT22;13143;50.924;5.320;2023-04-25T06:47:51;9.80;99.90
25192;DHT22;13143;50.924;5.320;2023-04-25T06:50:17;9.80;99.90
25192;DHT22;13143;50.924;5.320;2023-04-25T06:52:43;9.80;99.90
25192;DHT22;13143;50.924;5.320;2023-04-25T06:55:09;9.80;99.90
25192;DHT22;13143;50.924;5.320;2023-04-25T06:57:35;9.80;99.90
25192;DHT22;13143;50.924;5.320;2023-04-25T07:00:02;9.80;99.90
25192;DHT22;13143;50.924;5.320;2023-04-25T07:02:31;9.80;99.90
25192;DHT22;13143;50.924;5.320;2023-04-25T07:04:57;9.90;99.90
25192;DHT22;13143;50.924;5.320;2023-04-25T07:07:26;9.90;99.90
25192;DHT22;13143;50.924;5.320;2023-04-25T07:09:52;9.80;99.90
25192;DHT22;13143;50.924;5.320;2023-04-25T07:12:18;9.90;99.90
25192;DHT22;13143;50.924;5.320;2023-04-25T07:14:44;9.90;99.90
25192;DHT22;13143;50.924;5.320;2023-04-25T07:17:10;9.90;99.90
25192;DHT22;13143;50.924;5.320;2023-04-25T07:19:37;9.90;99.90
25192;DHT22;13143;50.924;5.320;2023-04-25T07:22:04;9.90;99.90
25192;DHT22;13143;50.924;5.320;2023-04-25T07:24:30;9.90;99.90
25192;DHT22;13143;50.924;5.320;2023-04-25T07:26:56;9.90;99.90
25192;DHT22;13143;50.924;5.320;2023-04-25T07:29:24;9.90;99.90
25192;DHT22;13143;50.924;5.320;2023-04-25T07:31:50;9.90;99.90
25192;DHT22;13143;50.924;5.320;2023-04-25T07:34:16;10.00;99.90
25192;DHT22;13143;50.924;5.320;2023-04-25T07:36:43;10.00;99.90
25192;DHT22;13143;50.924;5.320;2023-04-25T07:39:09;9.90;99.90
25192;DHT22;13143;50.924;5.320;2023-04-25T07:41:35;10.00;99.90
25192;DHT22;13143;50.924;5.320;2023-04-25T07:44:01;10.00;99.90
25192;DHT22;13143;50.924;5.320;2023-04-25T07:46:28;10.00;99.90
25192;DHT22;13143;50.924;5.320;2023-04-25T07:48:54;10.00;99.90
25192;DHT22;13143;50.924;5.320;2023-04-25T07:51:20;10.00;99.90
25192;DHT22;13143;50.924;5.320;2023-04-25T07:53:48;10.00;99.90
25192;DHT22;13143;50.924;5.320;2023-04-25T07:56:14;10.00;99.90
25192;DHT22;13143;50.924;5.320;2023-04-25T07:58:40;10.00;99.90
25192;DHT22;13143;50.924;5.320;2023-04-25T08:01:06;10.00;99.90
25192;DHT22;13143;50.924;5.320;2023-04-25T08:03:32;10.00;99.90
25192;DHT22;13143;50.924;5.320;2023-04-25T08:05:58;10.00;99.90
25192;DHT22;13143;50.924;5.320;2023-04-25T08:08:24;10.00;99.90
25192;DHT22;13143;50.924;5.320;2023-04-25T08:10:50;10.00;99.90
25192;DHT22;13143;50.924;5.320;2023-04-25T08:13:16;10.10;99.90
25192;DHT22;13143;50.924;5.320;2023-04-25T08:15:43;10.10;99.90
25192;DHT22;13143;50.924;5.320;2023-04-25T08:18:09;10.10;99.90
25192;DHT22;13143;50.924;5.320;2023-04-25T08:20:35;10.10;99.90
25192;DHT22;13143;50.924;5.320;2023-04-25T08:23:01;10.10;99.90
25192;DHT22;13143;50.924;5.320;2023-04-25T08:25:27;10.10;99.90
25192;DHT22;13143;50.924;5.320;2023-04-25T08:27:53;10.10;99.90
25192;DHT22;13143;50.924;5.320;2023-04-25T08:30:19;10.10;99.90
25192;DHT22;13143;50.924;5.320;2023-04-25T08:32:46;10.10;99.90
25192;DHT22;13143;50.924;5.320;2023-04-25T08:35:12;10.10;99.90
25192;DHT22;13143;50.924;5.320;2023-04-25T08:37:38;10.10;99.90
25192;DHT22;13143;50.924;5.320;2023-04-25T08:40:05;10.10;99.90
25192;DHT22;13143;50.924;5.320;2023-04-25T08:42:33;10.10;99.90
25192;DHT22;13143;50.924;5.320;2023-04-25T08:45:02;10.10;99.90
25192;DHT22;13143;50.924;5.320;2023-04-25T08:47:30;10.10;99.90
25192;DHT22;13143;50.924;5.320;2023-04-25T08:49:58;10.10;99.90
25192;DHT22;13143;50.924;5.320;2023-04-25T08:52:28;10.10;99.90
25192;DHT22;13143;50.924;5.320;2023-04-25T08:54:57;10.10;99.90
25192;DHT22;13143;50.924;5.320;2023-04-25T08:57:23;10.10;99.90
25192;DHT22;13143;50.924;5.320;2023-04-25T08:59:50;10.10;99.90
25192;DHT22;13143;50.924;5.320;2023-04-25T09:02:17;10.10;99.90
25192;DHT22;13143;50.924;5.320;2023-04-25T09:04:45;10.10;99.90
25192;DHT22;13143;50.924;5.320;2023-04-25T09:07:12;10.20;99.90
25192;DHT22;13143;50.924;5.320;2023-04-25T09:09:38;10.20;99.90
25192;DHT22;13143;50.924;5.320;2023-04-25T09:12:05;10.20;99.90
25192;DHT22;13143;50.924;5.320;2023-04-25T09:14:31;10.20;99.90
25192;DHT22;13143;50.924;5.320;2023-04-25T09:16:59;10.20;99.90
25192;DHT22;13143;50.924;5.320;2023-04-25T09:21:57;10.20;99.90
25192;DHT22;13143;50.924;5.320;2023-04-25T09:24:37;10.20;99.90
25192;DHT22;13143;50.924;5.320;2023-04-25T09:27:05;10.30;99.90
25192;DHT22;13143;50.924;5.320;2023-04-25T09:29:33;10.30;99.90
25192;DHT22;13143;50.924;5.320;2023-04-25T09:32:26;10.30;99.90
25192;DHT22;13143;50.924;5.320;2023-04-25T09:34:54;10.30;99.90
25192;DHT22;13143;50.924;5.320;2023-04-25T09:37:22;10.30;99.90
25192;DHT22;13143;50.924;5.320;2023-04-25T09:39:58;10.30;99.90
25192;DHT22;13143;50.924;5.320;2023-04-25T09:42:27;10.40;99.90
25192;DHT22;13143;50.924;5.320;2023-04-25T09:44:55;10.40;99.90
25192;DHT22;13143;50.924;5.320;2023-04-25T09:47:26;10.40;99.90
25192;DHT22;13143;50.924;5.320;2023-04-25T09:49:53;10.40;99.90
25192;DHT22;13143;50.924;5.320;2023-04-25T09:52:21;10.40;99.90
25192;DHT22;13143;50.924;5.320;2023-04-25T09:54:48;10.40;99.90
25192;DHT22;13143;50.924;5.320;2023-04-25T09:57:17;10.40;99.90
25192;DHT22;13143;50.924;5.320;2023-04-25T09:59:47;10.40;99.90
25192;DHT22;13143;50.924;5.320;2023-04-25T10:02:16;10.50;99.90
25192;DHT22;13143;50.924;5.320;2023-04-25T10:04:44;10.50;99.90
25192;DHT22;13143;50.924;5.320;2023-04-25T10:07:11;10.50;99.90
25192;DHT22;13143;50.924;5.320;2023-04-25T10:09:39;10.60;99.90
25192;DHT22;13143;50.924;5.320;2023-04-25T10:12:07;10.60;99.90
25192;DHT22;13143;50.924;5.320;2023-04-25T10:14:34;10.60;99.90
25192;DHT22;13143;50.924;5.320;2023-04-25T10:17:01;10.60;99.90
25192;DHT22;13143;50.924;5.320;2023-04-25T10:19:27;10.60;99.90
25192;DHT22;13143;50.924;5.320;2023-04-25T10:24:24;10.70;99.90
25192;DHT22;13143;50.924;5.320;2023-04-25T10:26:51;10.70;99.90
25192;DHT22;13143;50.924;5.320;2023-04-25T10:29:27;10.70;99.90
25192;DHT22;13143;50.924;5.320;2023-04-25T10:31:53;10.70;99.90
25192;DHT22;13143;50.924;5.320;2023-04-25T10:34:19;10.70;99.90
25192;DHT22;13143;50.924;5.320;2023-04-25T10:36:50;10.70;99.90
25192;DHT22;13143;50.924;5.320;2023-04-25T10:39:26;10.70;99.90
25192;DHT22;13143;50.924;5.320;2023-04-25T10:41:57;10.70;99.90
25192;DHT22;13143;50.924;5.320;2023-04-25T10:44:27;10.80;99.90
25192;DHT22;13143;50.924;5.320;2023-04-25T10:47:01;10.70;99.90
25192;DHT22;13143;50.924;5.320;2023-04-25T10:49:36;10.80;99.90
25192;DHT22;13143;50.924;5.320;2023-04-25T10:52:12;10.70;99.90
25192;DHT22;13143;50.924;5.320;2023-04-25T10:54:57;10.70;99.90
25192;DHT22;13143;50.924;5.320;2023-04-25T10:57:38;10.70;99.90
25192;DHT22;13143;50.924;5.320;2023-04-25T11:00:14;10.70;99.90
25192;DHT22;13143;50.924;5.320;2023-04-25T11:02:51;10.70;99.90
25192;DHT22;13143;50.924;5.320;2023-04-25T11:05:32;10.70;99.90
25192;DHT22;13143;50.924;5.320;2023-04-25T11:07:58;10.70;99.90
25192;DHT22;13143;50.924;5.320;2023-04-25T11:10:30;10.70;99.90
25192;DHT22;13143;50.924;5.320;2023-04-25T11:12:57;10.70;99.90
25192;DHT22;13143;50.924;5.320;2023-04-25T11:15:23;10.60;99.90
25192;DHT22;13143;50.924;5.320;2023-04-25T11:17:53;10.70;99.90
25192;DHT22;13143;50.924;5.320;2023-04-25T11:20:20;10.70;99.90
25192;DHT22;13143;50.924;5.320;2023-04-25T11:22:47;10.70;99.90
25192;DHT22;13143;50.924;5.320;2023-04-25T11:25:15;10.70;99.90
25192;DHT22;13143;50.924;5.320;2023-04-25T11:27:55;10.70;99.90
25192;DHT22;13143;50.924;5.320;2023-04-25T11:30:24;10.70;99.90
25192;DHT22;13143;50.924;5.320;2023-04-25T11:32:51;10.70;99.90
25192;DHT22;13143;50.924;5.320;2023-04-25T11:35:19;10.70;99.90
25192;DHT22;13143;50.924;5.320;2023-04-25T11:37:45;10.80;99.90
25192;DHT22;13143;50.924;5.320;2023-04-25T11:40:12;10.80;99.90
25192;DHT22;13143;50.924;5.320;2023-04-25T11:42:39;10.80;99.90
25192;DHT22;13143;50.924;5.320;2023-04-25T11:45:09;10.80;99.90
25192;DHT22;13143;50.924;5.320;2023-04-25T11:47:35;10.80;99.90
25192;DHT22;13143;50.924;5.320;2023-04-25T11:50:02;10.80;99.90
25192;DHT22;13143;50.924;5.320;2023-04-25T11:52:56;10.80;99.90
25192;DHT22;13143;50.924;5.320;2023-04-25T11:55:22;10.90;99.90
25192;DHT22;13143;50.924;5.320;2023-04-25T11:57:49;10.90;99.90
25192;DHT22;13143;50.924;5.320;2023-04-25T12:00:17;10.90;99.90
25192;DHT22;13143;50.924;5.320;2023-04-25T12:02:46;10.90;99.90
25192;DHT22;13143;50.924;5.320;2023-04-25T12:05:14;10.90;99.90
25192;DHT22;13143;50.924;5.320;2023-04-25T12:07:41;10.90;99.90
25192;DHT22;13143;50.924;5.320;2023-04-25T12:10:13;10.90;99.90
25192;DHT22;13143;50.924;5.320;2023-04-25T12:12:47;11.00;99.90
25192;DHT22;13143;50.924;5.320;2023-04-25T12:15:13;11.00;99.90
25192;DHT22;13143;50.924;5.320;2023-04-25T12:17:46;11.00;99.90
25192;DHT22;13143;50.924;5.320;2023-04-25T12:20:20;11.10;99.90
25192;DHT22;13143;50.924;5.320;2023-04-25T12:22:47;11.10;99.90
25192;DHT22;13143;50.924;5.320;2023-04-25T12:25:37;11.10;99.90
25192;DHT22;13143;50.924;5.320;2023-04-25T12:31:05;11.20;99.90
25192;DHT22;13143;50.924;5.320;2023-04-25T12:33:33;11.10;99.90
25192;DHT22;13143;50.924;5.320;2023-04-25T12:36:00;11.20;99.90
25192;DHT22;13143;50.924;5.320;2023-04-25T12:38:30;11.20;99.90
25192;DHT22;13143;50.924;5.320;2023-04-25T12:40:58;11.20;99.90
25192;DHT22;13143;50.924;5.320;2023-04-25T12:43:24;11.10;99.90
25192;DHT22;13143;50.924;5.320;2023-04-25T12:45:52;11.20;99.90
25192;DHT22;13143;50.924;5.320;2023-04-25T12:48:18;11.20;99.90
25192;DHT22;13143;50.924;5.320;2023-04-25T12:50:45;11.10;99.90
25192;DHT22;13143;50.924;5.320;2023-04-25T12:53:19;11.20;99.90
25192;DHT22;13143;50.924;5.320;2023-04-25T12:55:45;11.10;99.90
25192;DHT22;13143;50.924;5.320;2023-04-25T12:58:13;11.10;99.90
25192;DHT22;13143;50.924;5.320;2023-04-25T13:00:39;11.10;99.90
25192;DHT22;13143;50.924;5.320;2023-04-25T13:03:05;11.10;99.90
25192;DHT22;13143;50.924;5.320;2023-04-25T13:05:31;11.20;99.90
25192;DHT22;13143;50.924;5.320;2023-04-25T13:07:57;11.20;99.90
25192;DHT22;13143;50.924;5.320;2023-04-25T13:10:23;11.20;99.90
25192;DHT22;13143;50.924;5.320;2023-04-25T13:12:49;11.20;99.90
25192;DHT22;13143;50.924;5.320;2023-04-25T13:15:16;11.20;99.90
25192;DHT22;13143;50.924;5.320;2023-04-25T13:17:42;11.20;99.90
25192;DHT22;13143;50.924;5.320;2023-04-25T13:20:09;11.20;99.90
25192;DHT22;13143;50.924;5.320;2023-04-25T13:22:39;11.20;99.90
25192;DHT22;13143;50.924;5.320;2023-04-25T13:25:06;11.20;99.90
25192;DHT22;13143;50.924;5.320;2023-04-25T13:27:33;11.20;99.90
25192;DHT22;13143;50.924;5.320;2023-04-25T13:30:00;11.20;99.90
25192;DHT22;13143;50.924;5.320;2023-04-25T13:32:27;11.20;99.90
25192;DHT22;13143;50.924;5.320;2023-04-25T13:34:53;11.20;99.90
25192;DHT22;13143;50.924;5.320;2023-04-25T13:37:19;11.20;99.90
25192;DHT22;13143;50.924;5.320;2023-04-25T13:39:45;11.20;99.90
25192;DHT22;13143;50.924;5.320;2023-04-25T13:42:11;11.20;99.90
25192;DHT22;13143;50.924;5.320;2023-04-25T13:44:37;11.20;99.90
25192;DHT22;13143;50.924;5.320;2023-04-25T13:47:03;11.30;99.90
25192;DHT22;13143;50.924;5.320;2023-04-25T13:49:29;11.30;99.90
25192;DHT22;13143;50.924;5.320;2023-04-25T13:51:55;11.30;99.90
25192;DHT22;13143;50.924;5.320;2023-04-25T13:54:21;11.30;99.90
25192;DHT22;13143;50.924;5.320;2023-04-25T13:56:49;11.30;99.90
25192;DHT22;13143;50.924;5.320;2023-04-25T13:59:16;11.30;99.90
25192;DHT22;13143;50.924;5.320;2023-04-25T14:01:42;11.30;99.90
25192;DHT22;13143;50.924;5.320;2023-04-25T14:04:08;11.30;99.90
25192;DHT22;13143;50.924;5.320;2023-04-25T14:06:34;11.40;99.90
25192;DHT22;13143;50.924;5.320;2023-04-25T14:09:01;11.40;99.90
25192;DHT22;13143;50.924;5.320;2023-04-25T14:11:27;11.40;99.90
25192;DHT22;13143;50.924;5.320;2023-04-25T14:13:53;11.40;99.90
25192;DHT22;13143;50.924;5.320;2023-04-25T14:16:19;11.40;99.90
25192;DHT22;13143;50.924;5.320;2023-04-25T14:18:46;11.50;99.90
25192;DHT22;13143;50.924;5.320;2023-04-25T14:21:12;11.50;99.90
25192;DHT22;13143;50.924;5.320;2023-04-25T14:23:38;11.50;99.90
25192;DHT22;13143;50.924;5.320;2023-04-25T14:26:04;11.50;99.90
25192;DHT22;13143;50.924;5.320;2023-04-25T14:28:30;11.50;99.90
25192;DHT22;13143;50.924;5.320;2023-04-25T14:30:57;11.50;99.90
25192;DHT22;13143;50.924;5.320;2023-04-25T14:33:23;11.50;99.90
25192;DHT22;13143;50.924;5.320;2023-04-25T14:35:49;11.50;99.90
25192;DHT22;13143;50.924;5.320;2023-04-25T14:38:15;11.50;99.90
25192;DHT22;13143;50.924;5.320;2023-04-25T14:40:41;11.60;99.90
25192;DHT22;13143;50.924;5.320;2023-04-25T14:43:08;11.50;99.90
25192;DHT22;13143;50.924;5.320;2023-04-25T14:45:34;11.60;99.90
25192;DHT22;13143;50.924;5.320;2023-04-25T14:48:00;11.60;99.90
25192;DHT22;13143;50.924;5.320;2023-04-25T14:50:27;11.60;99.90
25192;DHT22;13143;50.924;5.320;2023-04-25T14:52:53;11.60;99.90
25192;DHT22;13143;50.924;5.320;2023-04-25T14:55:19;11.60;99.90
25192;DHT22;13143;50.924;5.320;2023-04-25T14:57:45;11.60;99.90
25192;DHT22;13143;50.924;5.320;2023-04-25T15:00:12;11.60;99.90
25192;DHT22;13143;50.924;5.320;2023-04-25T15:02:42;11.60;99.90
25192;DHT22;13143;50.924;5.320;2023-04-25T15:05:08;11.60;99.90
25192;DHT22;13143;50.924;5.320;2023-04-25T15:07:34;11.60;99.90
25192;DHT22;13143;50.924;5.320;2023-04-25T15:10:00;11.60;99.90
25192;DHT22;13143;50.924;5.320;2023-04-25T15:12:26;11.60;99.90
25192;DHT22;13143;50.924;5.320;2023-04-25T15:14:54;11.60;99.80
25192;DHT22;13143;50.924;5.320;2023-04-25T15:17:20;11.60;99.20
25192;DHT22;13143;50.924;5.320;2023-04-25T15:19:46;11.60;98.80
25192;DHT22;13143;50.924;5.320;2023-04-25T15:22:12;11.60;98.80
25192;DHT22;13143;50.924;5.320;2023-04-25T15:24:38;11.60;99.00
25192;DHT22;13143;50.924;5.320;2023-04-25T15:27:04;11.60;99.20
25192;DHT22;13143;50.924;5.320;2023-04-25T15:29:30;11.60;99.30
25192;DHT22;13143;50.924;5.320;2023-04-25T15:31:57;11.70;99.10
25192;DHT22;13143;50.924;5.320;2023-04-25T15:34:23;11.70;98.80
25192;DHT22;13143;50.924;5.320;2023-04-25T15:36:49;11.70;99.20
25192;DHT22;13143;50.924;5.320;2023-04-25T15:39:15;11.70;99.00
25192;DHT22;13143;50.924;5.320;2023-04-25T15:41:41;11.70;99.20